createdAt,value
2022-09-14T00:01:25.827Z,94948.16
2022-09-14T00:04:01.853Z,94954.94
2022-09-14T00:06:30.630Z,94959.66
2022-09-14T00:09:00.776Z,94961.66
2022-09-14T00:11:32.172Z,94968.34
2022-09-14T00:14:00.891Z,94971.03
2022-09-14T00:16:30.758Z,94973.25
2022-09-14T00:19:00.772Z,94969.19
2022-09-14T00:21:28.461Z,94964.81
2022-09-14T00:23:54.959Z,94968.78
2022-09-14T00:26:22.961Z,94954.00
2022-09-14T00:28:52.095Z,94953.97
2022-09-14T00:31:19.982Z,94954.69
2022-09-14T00:33:48.427Z,94943.94
2022-09-14T00:36:20.677Z,94945.88
2022-09-14T00:38:48.477Z,94959.03
2022-09-14T00:41:19.070Z,94953.91
2022-09-14T00:44:24.178Z,94952.25
2022-09-14T00:46:53.668Z,94961.91
2022-09-14T00:49:39.422Z,94974.00
2022-09-14T00:52:09.701Z,94971.66
2022-09-14T00:54:41.531Z,94964.13
2022-09-14T00:57:08.364Z,94957.41
2022-09-14T00:59:38.229Z,94942.31
2022-09-14T01:02:07.454Z,94946.31
2022-09-14T01:04:34.022Z,94938.75
2022-09-14T01:07:15.205Z,94941.84
2022-09-14T01:10:00.430Z,94930.13
2022-09-14T01:12:45.164Z,94930.94
2022-09-14T01:15:23.476Z,94919.41
2022-09-14T01:18:16.680Z,94918.19
2022-09-14T01:21:19.336Z,94918.53
2022-09-14T01:24:22.843Z,94912.63
2022-09-14T01:27:21.551Z,94913.09
2022-09-14T01:30:02.513Z,94905.50
2022-09-14T01:32:36.003Z,94906.28
2022-09-14T01:35:07.755Z,94908.31
2022-09-14T01:37:40.569Z,94901.16
2022-09-14T01:40:10.878Z,94907.97
2022-09-14T01:42:41.643Z,94901.00
2022-09-14T01:45:13.208Z,94889.09
2022-09-14T01:47:54.145Z,94892.63
2022-09-14T01:50:26.071Z,94888.34
2022-09-14T01:53:00.998Z,94882.00
2022-09-14T01:55:32.262Z,94881.06
2022-09-14T01:58:05.411Z,94879.47
2022-09-14T02:00:32.788Z,94878.38
2022-09-14T02:03:06.707Z,94883.56
2022-09-14T02:06:02.716Z,94878.03
2022-09-14T02:08:31.596Z,94884.44
2022-09-14T02:10:59.030Z,94869.41
2022-09-14T02:13:26.953Z,94877.38
2022-09-14T02:15:53.930Z,94867.81
2022-09-14T02:18:20.874Z,94879.31
2022-09-14T02:20:53.132Z,94872.53
2022-09-14T02:23:19.704Z,94876.47
2022-09-14T02:25:47.510Z,94871.66
2022-09-14T02:28:14.588Z,94875.56
2022-09-14T02:31:08.827Z,94871.69
2022-09-14T02:34:20.258Z,94869.22
2022-09-14T02:37:00.932Z,94867.31
2022-09-14T02:39:39.833Z,94858.56
2022-09-14T02:42:25.078Z,94854.09
2022-09-14T02:45:16.241Z,94849.31
2022-09-14T02:48:15.126Z,94845.34
2022-09-14T02:50:57.180Z,94843.84
2022-09-14T02:53:39.731Z,94849.50
2022-09-14T02:56:09.070Z,94838.06
2022-09-14T02:58:38.778Z,94839.69
2022-09-14T03:01:07.038Z,94830.50
2022-09-14T03:03:35.747Z,94829.31
2022-09-14T03:06:03.616Z,94826.84
2022-09-14T03:08:30.534Z,94830.47
2022-09-14T03:10:57.536Z,94824.09
2022-09-14T03:13:24.732Z,94816.94
2022-09-14T03:15:51.872Z,94826.84
2022-09-14T03:18:19.046Z,94820.06
2022-09-14T03:20:45.565Z,94815.25
2022-09-14T03:23:12.905Z,94812.25
2022-09-14T03:25:42.061Z,94820.53
2022-09-14T03:28:09.772Z,94827.16
2022-09-14T03:30:36.534Z,94831.94
2022-09-14T03:33:03.696Z,94830.34
2022-09-14T03:35:31.986Z,94823.34
2022-09-14T03:37:59.783Z,94834.31
2022-09-14T03:40:27.426Z,94836.34
2022-09-14T03:42:54.472Z,94839.19
2022-09-14T03:45:21.824Z,94838.41
2022-09-14T03:47:49.161Z,94832.88
2022-09-14T03:50:17.222Z,94832.47
2022-09-14T03:52:44.109Z,94834.06
2022-09-14T03:55:11.518Z,94827.78
2022-09-14T03:57:38.340Z,94822.63
2022-09-14T04:00:06.825Z,94812.72
2022-09-14T04:02:33.425Z,94805.19
2022-09-14T04:05:00.080Z,94802.38
2022-09-14T04:07:26.866Z,94803.50
2022-09-14T04:09:53.421Z,94814.25
2022-09-14T04:12:19.939Z,94801.91
2022-09-14T04:14:46.465Z,94800.28
2022-09-14T04:17:12.984Z,94793.16
2022-09-14T04:19:42.206Z,94782.81
2022-09-14T04:22:08.814Z,94788.06
2022-09-14T04:24:35.999Z,94780.47
2022-09-14T04:27:02.692Z,94773.81
2022-09-14T04:29:30.644Z,94769.09
2022-09-14T04:31:57.773Z,94763.00
2022-09-14T04:34:24.742Z,94769.50
2022-09-14T04:36:51.262Z,94757.19
2022-09-14T04:39:18.289Z,94766.34
2022-09-14T04:41:44.843Z,94774.28
2022-09-14T04:44:11.921Z,94769.09
2022-09-14T04:46:45.074Z,94770.34
2022-09-14T04:49:13.190Z,94771.16
2022-09-14T04:51:39.859Z,94774.72
2022-09-14T04:54:07.302Z,94775.13
2022-09-14T04:56:35.944Z,94784.66
2022-09-14T04:59:04.446Z,94779.91
2022-09-14T05:01:42.127Z,94784.66
2022-09-14T05:04:10.048Z,94783.06
2022-09-14T05:06:38.388Z,94791.81
2022-09-14T05:09:08.345Z,94792.59
2022-09-14T05:11:36.438Z,94792.59
2022-09-14T05:14:03.811Z,94799.72
2022-09-14T05:16:35.506Z,94796.56
2022-09-14T05:19:05.233Z,94801.31
2022-09-14T05:21:33.809Z,94788.63
2022-09-14T05:24:03.467Z,94794.56
2022-09-14T05:26:31.733Z,94794.16
2022-09-14T05:29:00.809Z,94802.88
2022-09-14T05:31:29.146Z,94804.03
2022-09-14T05:33:55.783Z,94794.53
2022-09-14T05:36:23.007Z,94791.00
2022-09-14T05:38:49.742Z,94784.66
2022-09-14T05:41:16.946Z,94787.44
2022-09-14T05:43:44.508Z,94772.38
2022-09-14T05:46:13.919Z,94776.75
2022-09-14T05:48:40.816Z,94775.97
2022-09-14T05:51:16.755Z,94773.59
2022-09-14T05:53:47.461Z,94768.44
2022-09-14T05:56:14.586Z,94779.16
2022-09-14T05:58:42.367Z,94779.16
2022-09-14T06:01:25.308Z,94777.19
2022-09-14T06:03:56.738Z,94776.38
2022-09-14T06:06:24.066Z,94776.00
2022-09-14T06:08:52.703Z,94776.38
2022-09-14T06:11:28.972Z,94768.09
2022-09-14T06:13:56.102Z,94779.56
2022-09-14T06:16:24.511Z,94778.78
2022-09-14T06:18:51.564Z,94781.16
2022-09-14T06:21:20.386Z,94780.38
2022-09-14T06:23:48.290Z,94782.78
2022-09-14T06:26:16.025Z,94774.44
2022-09-14T06:28:43.206Z,94771.69
2022-09-14T06:31:12.424Z,94766.94
2022-09-14T06:33:43.851Z,94785.19
2022-09-14T06:36:15.074Z,94782.41
2022-09-14T06:38:42.350Z,94789.56
2022-09-14T06:41:12.835Z,94787.97
2022-09-14T06:43:40.941Z,94793.50
2022-09-14T06:46:16.126Z,94784.81
2022-09-14T06:48:50.810Z,94781.69
2022-09-14T06:51:32.160Z,94786.44
2022-09-14T06:54:00.172Z,94793.97
2022-09-14T06:56:29.246Z,94795.50
2022-09-14T06:58:55.825Z,94791.19
2022-09-14T07:01:22.807Z,94784.84
2022-09-14T07:03:52.298Z,94777.34
2022-09-14T07:06:22.680Z,94779.38
2022-09-14T07:08:50.971Z,94776.19
2022-09-14T07:11:20.130Z,94768.25
2022-09-14T07:13:47.534Z,94757.16
2022-09-14T07:16:14.986Z,94760.72
2022-09-14T07:18:41.900Z,94767.06
2022-09-14T07:21:16.994Z,94768.25
2022-09-14T07:23:45.295Z,94772.63
2022-09-14T07:26:14.762Z,94772.22
2022-09-14T07:28:43.359Z,94768.25
2022-09-14T07:31:21.573Z,94771.03
2022-09-14T07:33:48.666Z,94773.41
2022-09-14T07:36:15.785Z,94781.75
2022-09-14T07:38:52.235Z,94785.72
2022-09-14T07:41:28.458Z,94775.81
2022-09-14T07:43:57.419Z,94774.22
2022-09-14T07:46:24.400Z,94777.81
2022-09-14T07:48:58.870Z,94770.66
2022-09-14T07:51:26.875Z,94777.00
2022-09-14T07:53:53.819Z,94787.72
2022-09-14T07:56:21.838Z,94794.44
2022-09-14T07:58:53.983Z,94794.06
2022-09-14T08:01:22.030Z,94794.88
2022-09-14T08:03:49.267Z,94802.00
2022-09-14T08:06:21.493Z,94800.41
2022-09-14T08:08:51.168Z,94794.88
2022-09-14T08:11:19.480Z,94778.19
2022-09-14T08:13:53.367Z,94777.41
2022-09-14T08:16:20.879Z,94780.13
2022-09-14T08:18:48.583Z,94786.06
2022-09-14T08:21:17.499Z,94784.03
2022-09-14T08:23:45.179Z,94785.63
2022-09-14T08:26:14.393Z,94798.75
2022-09-14T08:28:41.852Z,94786.81
2022-09-14T08:31:13.582Z,94791.59
2022-09-14T08:33:44.264Z,94787.97
2022-09-14T08:36:13.334Z,94794.38
2022-09-14T08:38:40.171Z,94793.13
2022-09-14T08:41:24.761Z,94801.03
2022-09-14T08:43:52.025Z,94810.19
2022-09-14T08:46:36.768Z,94824.44
2022-09-14T08:49:10.937Z,94832.38
2022-09-14T08:51:37.604Z,94833.94
2022-09-14T08:54:04.138Z,94824.00
2022-09-14T08:56:35.089Z,94836.28
2022-09-14T08:59:17.849Z,94833.84
2022-09-14T09:02:03.108Z,94830.56
2022-09-14T09:04:37.011Z,94823.88
2022-09-14T09:07:29.966Z,94842.34
2022-09-14T09:09:58.301Z,94837.69
2022-09-14T09:12:59.477Z,94833.84
2022-09-14T09:15:32.604Z,94830.72
2022-09-14T09:18:08.615Z,94830.47
2022-09-14T09:20:44.158Z,94829.59
2022-09-14T09:23:14.853Z,94826.78
2022-09-14T09:26:01.126Z,94838.72
2022-09-14T09:28:29.792Z,94834.63
2022-09-14T09:31:01.078Z,94830.28
2022-09-14T09:33:28.348Z,94832.19
2022-09-14T09:35:55.641Z,94816.72
2022-09-14T09:38:26.074Z,94814.75
2022-09-14T09:41:14.890Z,94808.72
2022-09-14T09:44:06.730Z,94808.69
2022-09-14T09:46:37.675Z,94809.41
2022-09-14T09:49:16.694Z,94809.47
2022-09-14T09:51:44.041Z,94798.53
2022-09-14T09:54:13.672Z,94799.16
2022-09-14T09:57:02.155Z,94803.31
2022-09-14T09:59:41.806Z,94796.22
2022-09-14T10:02:28.781Z,94793.88
2022-09-14T10:04:59.550Z,94797.06
2022-09-14T10:07:27.686Z,94794.16
2022-09-14T10:09:58.547Z,94789.59
2022-09-14T10:12:25.976Z,94777.53
2022-09-14T10:15:07.953Z,94774.78
2022-09-14T10:17:34.825Z,94772.41
2022-09-14T10:20:01.803Z,94768.00
2022-09-14T10:22:33.002Z,94759.94
2022-09-14T10:25:20.820Z,94758.88
2022-09-14T10:27:59.488Z,94754.53
2022-09-14T10:30:34.570Z,94760.28
2022-09-14T10:33:04.656Z,94761.41
2022-09-14T10:35:52.486Z,94755.50
2022-09-14T10:38:32.001Z,94756.88
2022-09-14T10:41:29.926Z,94750.44
2022-09-14T10:44:22.829Z,94738.41
2022-09-14T10:46:56.157Z,94731.91
2022-09-14T10:49:33.575Z,94725.66
2022-09-14T10:52:22.001Z,94709.50
2022-09-14T10:55:32.233Z,94710.97
2022-09-14T10:58:07.449Z,94706.03
2022-09-14T11:00:51.886Z,94694.81
2022-09-14T11:03:27.710Z,94698.31
2022-09-14T11:06:25.384Z,94704.03
2022-09-14T11:09:07.756Z,94709.72
2022-09-14T11:11:37.332Z,94705.44
2022-09-14T11:14:17.901Z,94694.19
2022-09-14T11:16:57.542Z,94695.28
2022-09-14T11:19:44.406Z,94691.03
2022-09-14T11:22:33.381Z,94694.63
2022-09-14T11:25:05.944Z,94681.28
2022-09-14T11:27:41.238Z,94685.41
2022-09-14T11:30:16.461Z,94690.81
2022-09-14T11:32:51.742Z,94682.94
2022-09-14T11:35:25.347Z,94686.03
2022-09-14T11:38:11.037Z,94689.56
2022-09-14T11:40:45.316Z,94689.47
2022-09-14T11:43:16.972Z,94696.44
2022-09-14T11:46:21.333Z,94696.75
2022-09-14T11:48:57.254Z,94696.44
2022-09-14T11:51:32.528Z,94695.00
2022-09-14T11:53:59.195Z,94688.22
2022-09-14T11:56:32.021Z,94693.50
2022-09-14T11:59:01.538Z,94701.63
2022-09-14T12:01:32.885Z,94706.31
2022-09-14T12:04:14.736Z,94707.09
2022-09-14T12:06:50.150Z,94703.88
2022-09-14T12:09:17.189Z,94711.19
2022-09-14T12:11:45.550Z,94717.06
2022-09-14T12:14:24.308Z,94719.53
2022-09-14T12:20:27.764Z,94718.94
2022-09-14T12:23:24.870Z,94728.63
2022-09-14T12:26:05.978Z,94725.13
2022-09-14T12:28:35.283Z,94729.19
2022-09-14T12:31:05.107Z,94721.03
2022-09-14T12:33:34.295Z,94709.06
2022-09-14T12:36:05.986Z,94701.63
2022-09-14T12:38:38.242Z,94695.94
2022-09-14T12:41:10.556Z,94684.56
2022-09-14T12:43:37.303Z,94672.00
2022-09-14T12:46:08.000Z,94665.25
2022-09-14T12:48:47.094Z,94661.16
2022-09-14T12:51:29.241Z,94649.06
2022-09-14T12:54:01.702Z,94646.78
2022-09-14T12:56:40.287Z,94650.19
2022-09-14T12:59:15.994Z,94636.78
2022-09-14T13:02:00.982Z,94633.03
2022-09-14T13:04:35.006Z,94632.47
2022-09-14T13:07:05.858Z,94631.91
2022-09-14T13:09:33.318Z,94633.38
2022-09-14T13:11:59.788Z,94636.59
2022-09-14T13:14:30.734Z,94633.81
2022-09-14T13:16:59.974Z,94644.25
2022-09-14T13:19:30.898Z,94639.53
2022-09-14T13:22:00.508Z,94633.81
2022-09-14T13:24:36.538Z,94630.16
2022-09-14T13:27:04.390Z,94626.22
2022-09-14T13:29:31.150Z,94637.41
2022-09-14T13:32:03.309Z,94648.47
2022-09-14T13:34:44.387Z,94646.44
2022-09-14T13:37:14.450Z,94654.13
2022-09-14T13:39:42.059Z,94651.25
2022-09-14T13:42:09.781Z,94651.28
2022-09-14T13:44:45.439Z,94657.50
2022-09-14T13:47:15.108Z,94642.16
2022-09-14T13:49:44.165Z,94648.97
2022-09-14T13:52:22.508Z,94641.75
2022-09-14T13:55:08.776Z,94646.19
2022-09-14T13:57:35.505Z,94642.84
2022-09-14T14:00:14.514Z,94651.25
2022-09-14T14:02:48.082Z,94660.53
2022-09-14T14:05:30.362Z,94660.88
2022-09-14T14:07:58.982Z,94664.22
2022-09-14T14:10:37.180Z,94673.50
2022-09-14T14:13:04.029Z,94675.47
2022-09-14T14:15:44.193Z,94667.78
2022-09-14T14:18:35.573Z,94681.13
2022-09-14T14:21:13.275Z,94727.94
2022-09-14T14:23:56.745Z,94750.50
2022-09-14T14:26:27.589Z,94736.13
2022-09-14T14:28:55.049Z,94726.63
2022-09-14T14:31:22.835Z,94719.88
2022-09-14T14:33:53.499Z,94719.06
2022-09-14T14:36:20.030Z,94707.59
2022-09-14T14:38:48.107Z,94707.56
2022-09-14T14:41:22.056Z,94707.59
2022-09-14T14:43:50.845Z,94703.97
2022-09-14T14:46:17.889Z,94711.13
2022-09-14T14:48:44.565Z,94707.09
2022-09-14T14:51:15.246Z,94705.47
2022-09-14T14:53:42.961Z,94705.00
2022-09-14T14:56:13.733Z,94703.78
2022-09-14T14:58:47.444Z,94695.09
2022-09-14T15:01:14.131Z,94680.81
2022-09-14T15:03:40.751Z,94679.22
2022-09-14T15:06:23.141Z,94669.75
2022-09-14T15:08:56.616Z,94668.97
2022-09-14T15:11:23.983Z,94667.38
2022-09-14T15:13:50.906Z,94667.34
2022-09-14T15:16:17.976Z,94663.81
2022-09-14T15:18:44.742Z,94656.69
2022-09-14T15:21:11.695Z,94647.97
2022-09-14T15:23:38.572Z,94634.88
2022-09-14T15:26:05.810Z,94640.75
2022-09-14T15:28:35.818Z,94651.00
2022-09-14T15:31:04.897Z,94658.94
2022-09-14T15:33:34.189Z,94665.66
2022-09-14T15:36:01.200Z,94667.19
2022-09-14T15:38:27.845Z,94668.75
2022-09-14T15:40:54.445Z,94667.94
2022-09-14T15:43:21.105Z,94669.91
2022-09-14T15:45:47.826Z,94681.34
2022-09-14T15:48:16.338Z,94683.34
2022-09-14T15:50:44.546Z,94671.91
2022-09-14T15:53:12.681Z,94676.25
2022-09-14T15:55:41.355Z,94671.91
2022-09-14T15:58:08.829Z,94673.56
2022-09-14T16:00:36.456Z,94670.78
2022-09-14T16:03:03.945Z,94664.44
2022-09-14T16:05:31.365Z,94673.56
2022-09-14T16:07:57.923Z,94667.25
2022-09-14T16:10:25.666Z,94670.38
2022-09-14T16:13:18.393Z,94677.41
2022-09-14T16:15:44.990Z,94679.41
2022-09-14T16:18:11.842Z,94681.78
2022-09-14T16:20:38.381Z,94681.41
2022-09-14T16:23:05.035Z,94671.97
2022-09-14T16:25:31.733Z,94683.44
2022-09-14T16:27:58.242Z,94685.44
2022-09-14T16:30:24.736Z,94681.88
2022-09-14T16:32:52.460Z,94683.09
2022-09-14T16:35:19.076Z,94687.84
2022-09-14T16:37:45.624Z,94685.97
2022-09-14T16:40:13.195Z,94685.56
2022-09-14T16:42:39.967Z,94688.66
2022-09-14T16:45:07.235Z,94681.91
2022-09-14T16:47:33.721Z,94691.09
2022-09-14T16:50:00.568Z,94691.78
2022-09-14T16:52:27.541Z,94701.34
2022-09-14T16:54:56.123Z,94708.94
2022-09-14T16:57:25.480Z,94712.53
2022-09-14T16:59:52.011Z,94708.94
2022-09-14T17:02:18.634Z,94703.81
2022-09-14T17:04:45.249Z,94688.78
2022-09-14T17:07:11.759Z,94690.28
2022-09-14T17:09:38.717Z,94699.72
2022-09-14T17:12:05.490Z,94691.06
2022-09-14T17:14:33.428Z,94691.09
2022-09-14T17:17:00.543Z,94695.47
2022-09-14T17:19:27.573Z,94685.53
2022-09-14T17:21:54.777Z,94686.69
2022-09-14T17:24:21.973Z,94697.78
2022-09-14T17:26:49.219Z,94694.19
2022-09-14T17:29:15.852Z,94684.25
2022-09-14T17:31:44.850Z,94688.94
2022-09-14T17:34:14.095Z,94685.38
2022-09-14T17:36:40.743Z,94691.69
2022-09-14T17:39:12.062Z,94692.47
2022-09-14T17:41:40.004Z,94694.84
2022-09-14T17:44:09.753Z,94693.69
2022-09-14T17:46:41.453Z,94692.94
2022-09-14T17:49:13.993Z,94701.28
2022-09-14T17:51:40.957Z,94697.34
2022-09-14T17:54:08.009Z,94695.06
2022-09-14T17:56:34.587Z,94691.13
2022-09-14T17:59:05.193Z,94691.38
2022-09-14T18:01:33.345Z,94690.28
2022-09-14T18:04:03.377Z,94689.13
2022-09-14T18:06:33.026Z,94687.50
2022-09-14T18:09:05.087Z,94697.44
2022-09-14T18:11:31.975Z,94678.84
2022-09-14T18:13:58.570Z,94675.28
2022-09-14T18:16:26.204Z,94678.03
2022-09-14T18:18:52.813Z,94672.84
2022-09-14T18:21:19.882Z,94673.59
2022-09-14T18:23:51.300Z,94683.09
2022-09-14T18:26:18.453Z,94684.78
2022-09-14T18:28:46.429Z,94684.78
2022-09-14T18:31:15.900Z,94683.19
2022-09-14T18:33:55.566Z,94691.53
2022-09-14T18:36:22.605Z,94687.94
2022-09-14T18:38:49.850Z,94694.28
2022-09-14T18:41:18.136Z,94697.84
2022-09-14T18:43:47.421Z,94691.53
2022-09-14T18:46:14.924Z,94682.03
2022-09-14T18:48:43.988Z,94701.03
2022-09-14T18:51:12.410Z,94693.50
2022-09-14T18:53:40.029Z,94705.78
2022-09-14T18:56:09.332Z,94708.03
2022-09-14T18:58:37.668Z,94711.59
2022-09-14T19:01:05.029Z,94719.91
2022-09-14T19:03:32.379Z,94712.38
2022-09-14T19:06:04.734Z,94709.22
2022-09-14T19:08:31.592Z,94719.50
2022-09-14T19:11:04.201Z,94720.31
2022-09-14T19:13:30.711Z,94730.97
2022-09-14T19:15:57.276Z,94740.84
2022-09-14T19:18:23.872Z,94727.84
2022-09-14T19:21:05.791Z,94726.63
2022-09-14T19:23:36.389Z,94715.56
2022-09-14T19:26:08.325Z,94710.81
2022-09-14T19:28:35.781Z,94710.91
2022-09-14T19:31:10.945Z,94718.34
2022-09-14T19:33:39.231Z,94719.50
2022-09-14T19:36:14.142Z,94719.09
2022-09-14T19:38:41.208Z,94722.28
2022-09-14T19:41:08.748Z,94713.97
2022-09-14T19:43:35.704Z,94722.25
2022-09-14T19:46:10.193Z,94720.25
2022-09-14T19:48:37.298Z,94725.81
2022-09-14T19:54:00.624Z,94717.13
2022-09-14T19:56:30.146Z,94713.56
2022-09-14T19:59:00.451Z,94708.91
2022-09-14T20:01:28.742Z,94717.19
2022-09-14T20:03:55.426Z,94719.09
2022-09-14T20:06:29.663Z,94718.28
2022-09-14T20:08:58.245Z,94732.50
2022-09-14T20:11:30.982Z,94734.41
2022-09-14T20:13:59.289Z,94734.47
2022-09-14T20:16:32.085Z,94734.09
2022-09-14T20:19:04.467Z,94730.47
2022-09-14T20:21:31.191Z,94737.19
2022-09-14T20:24:16.620Z,94731.28
2022-09-14T20:26:46.159Z,94730.50
2022-09-14T20:29:12.822Z,94733.72
2022-09-14T20:31:39.629Z,94741.28
2022-09-14T20:34:06.295Z,94731.88
2022-09-14T20:36:32.822Z,94730.22
2022-09-14T20:38:59.950Z,94730.19
2022-09-14T20:41:29.347Z,94729.03
2022-09-14T20:43:56.466Z,94734.53
2022-09-14T20:46:25.998Z,94747.19
2022-09-14T20:48:53.966Z,94740.84
2022-09-14T20:51:22.973Z,94743.19
2022-09-14T20:53:49.600Z,94743.19
2022-09-14T20:56:27.915Z,94748.31
2022-09-14T20:58:56.861Z,94748.31
2022-09-14T21:01:26.133Z,94748.75
2022-09-14T21:03:53.460Z,94751.53
2022-09-14T21:06:22.680Z,94755.03
2022-09-14T21:08:49.575Z,94743.19
2022-09-14T21:11:19.166Z,94753.50
2022-09-14T21:13:46.231Z,94755.94
2022-09-14T21:16:22.405Z,94753.56
2022-09-14T21:18:56.517Z,94750.38
2022-09-14T21:21:23.713Z,94755.13
2022-09-14T21:23:51.027Z,94757.91
2022-09-14T21:26:19.349Z,94755.94
2022-09-14T21:28:46.621Z,94752.38
2022-09-14T21:31:19.344Z,94756.03
2022-09-14T21:33:48.833Z,94749.69
2022-09-14T21:36:23.749Z,94746.50
2022-09-14T21:38:52.700Z,94746.06
2022-09-14T21:41:21.090Z,94756.81
2022-09-14T21:43:48.746Z,94753.56
2022-09-14T21:46:16.031Z,94761.88
2022-09-14T21:48:43.251Z,94759.91
2022-09-14T21:51:17.926Z,94762.25
2022-09-14T21:53:46.593Z,94765.41
2022-09-14T21:56:14.071Z,94763.41
2022-09-14T21:58:40.735Z,94768.59
2022-09-14T22:01:08.318Z,94770.59
2022-09-14T22:03:36.727Z,94774.16
2022-09-14T22:06:06.998Z,94772.94
2022-09-14T22:08:35.022Z,94773.75
2022-09-14T22:11:10.968Z,94775.78
2022-09-14T22:13:38.601Z,94765.44
2022-09-14T22:16:10.186Z,94767.91
2022-09-14T22:18:38.772Z,94769.50
2022-09-14T22:21:06.174Z,94765.50
2022-09-14T22:23:34.254Z,94765.13
2022-09-14T22:26:09.310Z,94773.88
2022-09-14T22:28:36.681Z,94778.56
2022-09-14T22:31:03.457Z,94770.31
2022-09-14T22:33:30.125Z,94770.63
2022-09-14T22:35:59.476Z,94775.75
2022-09-14T22:38:28.615Z,94784.03
2022-09-14T22:41:07.135Z,94778.47
2022-09-14T22:43:35.383Z,94774.50
2022-09-14T22:46:02.932Z,94774.50
2022-09-14T22:48:29.755Z,94771.34
2022-09-14T22:50:57.859Z,94773.41
2022-09-14T22:53:25.462Z,94776.22
2022-09-14T22:55:52.605Z,94768.59
2022-09-14T22:58:22.750Z,94771.72
2022-09-14T23:00:49.761Z,94770.59
2022-09-14T23:03:17.396Z,94768.59
2022-09-14T23:06:01.779Z,94773.34
2022-09-14T23:08:28.899Z,94777.31
2022-09-14T23:10:55.784Z,94778.16
2022-09-14T23:13:22.919Z,94781.34
2022-09-14T23:15:49.456Z,94781.25
2022-09-14T23:18:16.014Z,94777.28
2022-09-14T23:20:44.594Z,94781.22
2022-09-14T23:23:12.153Z,94787.56
2022-09-14T23:25:40.057Z,94780.44
2022-09-14T23:28:09.942Z,94788.34
2022-09-14T23:30:36.557Z,94784.81
2022-09-14T23:33:03.129Z,94784.16
2022-09-14T23:35:30.685Z,94773.44
2022-09-14T23:37:58.635Z,94784.44
2022-09-14T23:40:25.249Z,94780.50
2022-09-14T23:42:52.049Z,94782.03
2022-09-14T23:45:18.678Z,94782.03
2022-09-14T23:47:46.072Z,94778.50
2022-09-14T23:50:12.649Z,94792.38
2022-09-14T23:52:40.652Z,94783.66
2022-09-14T23:55:07.833Z,94774.94
2022-09-14T23:57:34.390Z,94784.09
